sensor_id;sensor_type;location;lat;lon;timestamp;temperature;humidity
52669;DHT22;59898;52.786;6.892;2022-08-01T00:01:40;19.00;99.90
52669;DHT22;59898;52.786;6.892;2022-08-01T00:05:00;19.00;99.90
52669;DHT22;59898;52.786;6.892;2022-08-01T00:08:21;19.00;99.90
52669;DHT22;59898;52.786;6.892;2022-08-01T00:11:42;19.00;99.90
52669;DHT22;59898;52.786;6.892;2022-08-01T00:15:04;19.00;99.90
52669;DHT22;59898;52.786;6.892;2022-08-01T00:18:25;19.00;99.90
52669;DHT22;59898;52.786;6.892;2022-08-01T00:21:46;19.00;99.90
52669;DHT22;59898;52.786;6.892;2022-08-01T00:25:07;19.00;99.90
52669;DHT22;59898;52.786;6.892;2022-08-01T00:28:28;19.00;99.90
52669;DHT22;59898;52.786;6.892;2022-08-01T00:31:48;18.90;99.90
52669;DHT22;59898;52.786;6.892;2022-08-01T00:35:09;18.90;99.90
52669;DHT22;59898;52.786;6.892;2022-08-01T00:38:30;18.90;99.90
52669;DHT22;59898;52.786;6.892;2022-08-01T00:41:51;18.90;99.90
52669;DHT22;59898;52.786;6.892;2022-08-01T00:45:12;18.90;99.90
52669;DHT22;59898;52.786;6.892;2022-08-01T00:48:32;18.80;99.90
52669;DHT22;59898;52.786;6.892;2022-08-01T00:51:54;18.80;99.90
52669;DHT22;59898;52.786;6.892;2022-08-01T00:55:15;18.80;99.90
52669;DHT22;59898;52.786;6.892;2022-08-01T00:58:37;18.80;99.90
52669;DHT22;59898;52.786;6.892;2022-08-01T01:01:58;18.80;99.90
52669;DHT22;59898;52.786;6.892;2022-08-01T01:05:18;18.80;99.90
52669;DHT22;59898;52.786;6.892;2022-08-01T01:08:43;18.80;99.90
52669;DHT22;59898;52.786;6.892;2022-08-01T01:12:25;18.90;99.90
52669;DHT22;59898;52.786;6.892;2022-08-01T01:15:56;18.90;99.90
52669;DHT22;59898;52.786;6.892;2022-08-01T01:19:23;18.80;99.90
52669;DHT22;59898;52.786;6.892;2022-08-01T01:26:45;18.80;99.90
52669;DHT22;59898;52.786;6.892;2022-08-01T01:30:10;18.80;99.90
52669;DHT22;59898;52.786;6.892;2022-08-01T01:33:34;18.80;99.90
52669;DHT22;59898;52.786;6.892;2022-08-01T01:36:58;18.90;99.90
52669;DHT22;59898;52.786;6.892;2022-08-01T01:40:20;18.90;99.90
52669;DHT22;59898;52.786;6.892;2022-08-01T01:43:42;18.90;99.90
52669;DHT22;59898;52.786;6.892;2022-08-01T01:47:04;18.90;99.90
52669;DHT22;59898;52.786;6.892;2022-08-01T01:50:25;18.90;99.90
52669;DHT22;59898;52.786;6.892;2022-08-01T01:53:48;19.00;99.90
52669;DHT22;59898;52.786;6.892;2022-08-01T01:57:09;18.90;99.90
52669;DHT22;59898;52.786;6.892;2022-08-01T02:00:32;18.90;99.90
52669;DHT22;59898;52.786;6.892;2022-08-01T02:03:55;18.80;99.90
52669;DHT22;59898;52.786;6.892;2022-08-01T02:07:20;18.80;99.90
52669;DHT22;59898;52.786;6.892;2022-08-01T02:10:44;18.80;99.90
52669;DHT22;59898;52.786;6.892;2022-08-01T02:14:26;18.80;99.90
52669;DHT22;59898;52.786;6.892;2022-08-01T02:17:49;18.70;99.90
52669;DHT22;59898;52.786;6.892;2022-08-01T02:21:14;18.70;99.90
52669;DHT22;59898;52.786;6.892;2022-08-01T02:31:39;18.60;99.90
52669;DHT22;59898;52.786;6.892;2022-08-01T02:35:07;18.60;99.90
52669;DHT22;59898;52.786;6.892;2022-08-01T02:38:33;18.50;99.90
52669;DHT22;59898;52.786;6.892;2022-08-01T02:41:59;18.50;99.90
52669;DHT22;59898;52.786;6.892;2022-08-01T02:45:24;18.60;99.90
52669;DHT22;59898;52.786;6.892;2022-08-01T02:48:46;18.60;99.90
52669;DHT22;59898;52.786;6.892;2022-08-01T02:52:08;18.60;99.90
52669;DHT22;59898;52.786;6.892;2022-08-01T02:55:32;18.60;99.90
52669;DHT22;59898;52.786;6.892;2022-08-01T02:58:54;18.60;99.90
52669;DHT22;59898;52.786;6.892;2022-08-01T03:02:16;18.60;99.90
52669;DHT22;59898;52.786;6.892;2022-08-01T03:05:38;18.60;99.90
52669;DHT22;59898;52.786;6.892;2022-08-01T03:09:03;18.60;99.90
52669;DHT22;59898;52.786;6.892;2022-08-01T03:12:27;18.60;99.90
52669;DHT22;59898;52.786;6.892;2022-08-01T03:15:49;18.60;99.90
52669;DHT22;59898;52.786;6.892;2022-08-01T03:19:11;18.60;99.90
52669;DHT22;59898;52.786;6.892;2022-08-01T03:22:33;18.60;99.90
52669;DHT22;59898;52.786;6.892;2022-08-01T03:25:56;18.60;99.90
52669;DHT22;59898;52.786;6.892;2022-08-01T03:29:25;18.60;99.90
52669;DHT22;59898;52.786;6.892;2022-08-01T03:32:47;18.60;99.90
52669;DHT22;59898;52.786;6.892;2022-08-01T03:36:09;18.50;99.90
52669;DHT22;59898;52.786;6.892;2022-08-01T03:39:40;18.60;99.90
52669;DHT22;59898;52.786;6.892;2022-08-01T03:43:07;18.50;99.90
52669;DHT22;59898;52.786;6.892;2022-08-01T03:46:43;18.60;99.90
52669;DHT22;59898;52.786;6.892;2022-08-01T03:50:06;18.50;99.90
52669;DHT22;59898;52.786;6.892;2022-08-01T03:53:30;18.50;99.90
52669;DHT22;59898;52.786;6.892;2022-08-01T03:56:52;18.50;99.90
52669;DHT22;59898;52.786;6.892;2022-08-01T04:00:13;18.50;99.90
52669;DHT22;59898;52.786;6.892;2022-08-01T04:03:38;18.40;99.90
52669;DHT22;59898;52.786;6.892;2022-08-01T04:07:00;18.40;99.90
52669;DHT22;59898;52.786;6.892;2022-08-01T04:10:25;18.40;99.90
52669;DHT22;59898;52.786;6.892;2022-08-01T04:13:45;18.40;99.90
52669;DHT22;59898;52.786;6.892;2022-08-01T04:17:06;18.40;99.90
52669;DHT22;59898;52.786;6.892;2022-08-01T04:20:27;18.40;99.90
52669;DHT22;59898;52.786;6.892;2022-08-01T04:23:49;18.40;99.90
52669;DHT22;59898;52.786;6.892;2022-08-01T04:27:13;18.50;99.90
52669;DHT22;59898;52.786;6.892;2022-08-01T04:30:37;18.40;99.90
52669;DHT22;59898;52.786;6.892;2022-08-01T04:34:01;18.50;99.90
52669;DHT22;59898;52.786;6.892;2022-08-01T04:37:23;18.40;99.90
52669;DHT22;59898;52.786;6.892;2022-08-01T04:40:46;18.50;99.90
52669;DHT22;59898;52.786;6.892;2022-08-01T04:44:07;18.50;99.90
52669;DHT22;59898;52.786;6.892;2022-08-01T04:47:29;18.50;99.90
52669;DHT22;59898;52.786;6.892;2022-08-01T04:50:50;18.50;99.90
52669;DHT22;59898;52.786;6.892;2022-08-01T04:54:11;18.40;99.90
52669;DHT22;59898;52.786;6.892;2022-08-01T04:57:34;18.40;99.90
52669;DHT22;59898;52.786;6.892;2022-08-01T05:00:56;18.50;99.90
52669;DHT22;59898;52.786;6.892;2022-08-01T05:04:17;18.60;99.90
52669;DHT22;59898;52.786;6.892;2022-08-01T05:07:38;18.70;99.90
52669;DHT22;59898;52.786;6.892;2022-08-01T05:11:00;18.80;99.90
52669;DHT22;59898;52.786;6.892;2022-08-01T05:14:21;19.10;99.90
52669;DHT22;59898;52.786;6.892;2022-08-01T05:17:42;19.50;99.90
52669;DHT22;59898;52.786;6.892;2022-08-01T05:21:02;19.70;99.90
52669;DHT22;59898;52.786;6.892;2022-08-01T05:24:23;20.00;99.90
52669;DHT22;59898;52.786;6.892;2022-08-01T05:27:44;20.10;99.90
52669;DHT22;59898;52.786;6.892;2022-08-01T05:31:04;20.20;99.90
52669;DHT22;59898;52.786;6.892;2022-08-01T05:34:26;20.40;99.90
52669;DHT22;59898;52.786;6.892;2022-08-01T05:37:46;20.50;99.90
52669;DHT22;59898;52.786;6.892;2022-08-01T05:41:07;20.60;99.90
52669;DHT22;59898;52.786;6.892;2022-08-01T05:44:28;20.70;99.90
52669;DHT22;59898;52.786;6.892;2022-08-01T05:47:48;20.80;99.90
52669;DHT22;59898;52.786;6.892;2022-08-01T05:51:09;20.90;99.90
52669;DHT22;59898;52.786;6.892;2022-08-01T05:54:30;20.90;99.90
52669;DHT22;59898;52.786;6.892;2022-08-01T05:57:50;21.00;99.90
52669;DHT22;59898;52.786;6.892;2022-08-01T06:01:11;21.00;99.90
52669;DHT22;59898;52.786;6.892;2022-08-01T06:04:32;21.10;99.90
52669;DHT22;59898;52.786;6.892;2022-08-01T06:07:52;21.20;99.90
52669;DHT22;59898;52.786;6.892;2022-08-01T06:11:14;21.20;99.90
52669;DHT22;59898;52.786;6.892;2022-08-01T06:14:34;21.20;99.90
52669;DHT22;59898;52.786;6.892;2022-08-01T06:17:55;21.20;99.90
52669;DHT22;59898;52.786;6.892;2022-08-01T06:21:16;21.30;99.90
52669;DHT22;59898;52.786;6.892;2022-08-01T06:24:36;21.30;99.90
52669;DHT22;59898;52.786;6.892;2022-08-01T06:27:57;21.30;99.90
52669;DHT22;59898;52.786;6.892;2022-08-01T06:31:18;21.40;99.90
52669;DHT22;59898;52.786;6.892;2022-08-01T06:34:38;21.40;99.90
52669;DHT22;59898;52.786;6.892;2022-08-01T06:37:59;21.40;99.90
52669;DHT22;59898;52.786;6.892;2022-08-01T06:41:20;21.40;99.90
52669;DHT22;59898;52.786;6.892;2022-08-01T06:44:41;21.40;99.90
52669;DHT22;59898;52.786;6.892;2022-08-01T06:48:02;21.40;99.90
52669;DHT22;59898;52.786;6.892;2022-08-01T06:51:22;21.40;99.90
52669;DHT22;59898;52.786;6.892;2022-08-01T06:54:43;21.30;99.90
52669;DHT22;59898;52.786;6.892;2022-08-01T06:58:04;21.30;99.90
52669;DHT22;59898;52.786;6.892;2022-08-01T07:01:24;21.30;99.90
52669;DHT22;59898;52.786;6.892;2022-08-01T07:04:45;21.30;99.90
52669;DHT22;59898;52.786;6.892;2022-08-01T07:08:06;21.10;99.90
52669;DHT22;59898;52.786;6.892;2022-08-01T07:11:26;21.00;99.90
52669;DHT22;59898;52.786;6.892;2022-08-01T07:14:47;21.00;99.90
52669;DHT22;59898;52.786;6.892;2022-08-01T07:18:08;21.20;99.90
52669;DHT22;59898;52.786;6.892;2022-08-01T07:21:28;21.20;99.90
52669;DHT22;59898;52.786;6.892;2022-08-01T07:24:49;21.20;99.90
52669;DHT22;59898;52.786;6.892;2022-08-01T07:28:10;21.20;99.90
52669;DHT22;59898;52.786;6.892;2022-08-01T07:31:30;21.30;99.90
52669;DHT22;59898;52.786;6.892;2022-08-01T07:34:51;21.40;99.90
52669;DHT22;59898;52.786;6.892;2022-08-01T07:38:12;21.50;99.90
52669;DHT22;59898;52.786;6.892;2022-08-01T07:41:33;21.50;99.90
52669;DHT22;59898;52.786;6.892;2022-08-01T07:44:53;21.60;99.90
52669;DHT22;59898;52.786;6.892;2022-08-01T07:48:14;21.60;99.90
52669;DHT22;59898;52.786;6.892;2022-08-01T07:51:35;21.60;99.90
52669;DHT22;59898;52.786;6.892;2022-08-01T07:54:56;21.60;99.90
52669;DHT22;59898;52.786;6.892;2022-08-01T07:58:17;21.60;99.90
52669;DHT22;59898;52.786;6.892;2022-08-01T08:01:39;21.60;99.90
52669;DHT22;59898;52.786;6.892;2022-08-01T08:05:00;21.50;99.90
52669;DHT22;59898;52.786;6.892;2022-08-01T08:08:21;21.50;99.90
52669;DHT22;59898;52.786;6.892;2022-08-01T08:11:43;21.20;99.90
52669;DHT22;59898;52.786;6.892;2022-08-01T08:15:04;21.00;99.90
52669;DHT22;59898;52.786;6.892;2022-08-01T08:18:27;20.80;99.90
52669;DHT22;59898;52.786;6.892;2022-08-01T08:21:47;20.60;99.90
52669;DHT22;59898;52.786;6.892;2022-08-01T08:25:08;20.50;99.90
52669;DHT22;59898;52.786;6.892;2022-08-01T08:28:29;20.50;99.90
52669;DHT22;59898;52.786;6.892;2022-08-01T08:31:50;20.40;99.90
52669;DHT22;59898;52.786;6.892;2022-08-01T08:35:11;20.30;99.90
52669;DHT22;59898;52.786;6.892;2022-08-01T08:38:31;20.30;99.90
52669;DHT22;59898;52.786;6.892;2022-08-01T08:41:52;20.20;99.90
52669;DHT22;59898;52.786;6.892;2022-08-01T08:45:13;20.20;99.90
52669;DHT22;59898;52.786;6.892;2022-08-01T08:48:34;20.20;99.90
52669;DHT22;59898;52.786;6.892;2022-08-01T08:51:59;20.30;99.90
52669;DHT22;59898;52.786;6.892;2022-08-01T08:55:20;20.40;99.90
52669;DHT22;59898;52.786;6.892;2022-08-01T08:58:44;20.60;99.90
52669;DHT22;59898;52.786;6.892;2022-08-01T09:02:05;20.70;99.90
52669;DHT22;59898;52.786;6.892;2022-08-01T09:05:27;20.80;99.90
52669;DHT22;59898;52.786;6.892;2022-08-01T09:08:48;20.80;99.90
52669;DHT22;59898;52.786;6.892;2022-08-01T09:12:08;20.80;99.90
52669;DHT22;59898;52.786;6.892;2022-08-01T09:15:44;20.80;99.90
52669;DHT22;59898;52.786;6.892;2022-08-01T09:19:10;21.00;99.90
52669;DHT22;59898;52.786;6.892;2022-08-01T09:22:34;21.20;99.90
52669;DHT22;59898;52.786;6.892;2022-08-01T09:25:55;21.30;99.90
52669;DHT22;59898;52.786;6.892;2022-08-01T09:29:22;21.40;99.90
52669;DHT22;59898;52.786;6.892;2022-08-01T09:32:57;21.50;99.90
52669;DHT22;59898;52.786;6.892;2022-08-01T09:36:25;21.50;99.90
52669;DHT22;59898;52.786;6.892;2022-08-01T09:39:54;21.60;99.90
52669;DHT22;59898;52.786;6.892;2022-08-01T09:43:16;21.80;99.90
52669;DHT22;59898;52.786;6.892;2022-08-01T09:46:54;21.90;99.90
52669;DHT22;59898;52.786;6.892;2022-08-01T09:50:15;21.90;99.90
52669;DHT22;59898;52.786;6.892;2022-08-01T09:53:47;21.70;99.90
52669;DHT22;59898;52.786;6.892;2022-08-01T09:57:17;21.70;99.90
52669;DHT22;59898;52.786;6.892;2022-08-01T10:00:39;21.70;99.90
52669;DHT22;59898;52.786;6.892;2022-08-01T10:07:27;22.10;99.90
52669;DHT22;59898;52.786;6.892;2022-08-01T10:11:09;22.30;99.90
52669;DHT22;59898;52.786;6.892;2022-08-01T10:14:31;22.60;99.90
52669;DHT22;59898;52.786;6.892;2022-08-01T10:17:59;22.80;99.90
52669;DHT22;59898;52.786;6.892;2022-08-01T10:21:21;23.00;99.90
52669;DHT22;59898;52.786;6.892;2022-08-01T10:24:45;23.30;99.90
52669;DHT22;59898;52.786;6.892;2022-08-01T10:28:15;23.50;99.90
52669;DHT22;59898;52.786;6.892;2022-08-01T10:31:37;23.80;99.90
52669;DHT22;59898;52.786;6.892;2022-08-01T10:34:59;24.10;99.90
52669;DHT22;59898;52.786;6.892;2022-08-01T10:38:20;24.20;99.90
52669;DHT22;59898;52.786;6.892;2022-08-01T10:41:41;24.00;99.90
52669;DHT22;59898;52.786;6.892;2022-08-01T10:45:02;24.00;99.90
52669;DHT22;59898;52.786;6.892;2022-08-01T10:48:36;23.80;99.90
52669;DHT22;59898;52.786;6.892;2022-08-01T10:52:00;23.70;99.90
52669;DHT22;59898;52.786;6.892;2022-08-01T10:55:23;23.60;99.90
52669;DHT22;59898;52.786;6.892;2022-08-01T10:58:46;23.60;99.90
52669;DHT22;59898;52.786;6.892;2022-08-01T11:02:07;23.50;99.90
52669;DHT22;59898;52.786;6.892;2022-08-01T11:05:31;23.60;99.90
52669;DHT22;59898;52.786;6.892;2022-08-01T11:08:54;23.60;99.90
52669;DHT22;59898;52.786;6.892;2022-08-01T11:12:16;23.60;99.90
52669;DHT22;59898;52.786;6.892;2022-08-01T11:15:41;23.70;99.90
52669;DHT22;59898;52.786;6.892;2022-08-01T11:19:04;23.60;99.90
52669;DHT22;59898;52.786;6.892;2022-08-01T11:22:25;23.50;99.90
52669;DHT22;59898;52.786;6.892;2022-08-01T11:29:16;23.60;99.90
52669;DHT22;59898;52.786;6.892;2022-08-01T11:32:55;23.70;99.90
52669;DHT22;59898;52.786;6.892;2022-08-01T11:36:17;23.80;99.90
52669;DHT22;59898;52.786;6.892;2022-08-01T11:39:38;23.90;99.90
52669;DHT22;59898;52.786;6.892;2022-08-01T11:53:50;24.30;99.90
52669;DHT22;59898;52.786;6.892;2022-08-01T11:57:18;24.30;99.90
52669;DHT22;59898;52.786;6.892;2022-08-01T12:00:39;24.40;99.70
52669;DHT22;59898;52.786;6.892;2022-08-01T12:04:00;24.30;99.90
52669;DHT22;59898;52.786;6.892;2022-08-01T12:07:22;24.20;99.90
52669;DHT22;59898;52.786;6.892;2022-08-01T12:10:49;24.10;99.90
52669;DHT22;59898;52.786;6.892;2022-08-01T12:14:18;24.00;99.90
52669;DHT22;59898;52.786;6.892;2022-08-01T12:17:42;23.90;99.80
52669;DHT22;59898;52.786;6.892;2022-08-01T12:21:04;24.00;99.90
52669;DHT22;59898;52.786;6.892;2022-08-01T12:24:25;24.00;99.70
52669;DHT22;59898;52.786;6.892;2022-08-01T12:27:46;24.10;99.30
52669;DHT22;59898;52.786;6.892;2022-08-01T12:31:07;24.10;99.20
52669;DHT22;59898;52.786;6.892;2022-08-01T12:34:28;24.10;99.40
52669;DHT22;59898;52.786;6.892;2022-08-01T12:37:55;24.10;99.30
52669;DHT22;59898;52.786;6.892;2022-08-01T12:41:16;24.10;99.20
52669;DHT22;59898;52.786;6.892;2022-08-01T12:44:38;24.10;99.10
52669;DHT22;59898;52.786;6.892;2022-08-01T12:48:00;24.20;98.90
52669;DHT22;59898;52.786;6.892;2022-08-01T12:51:21;24.30;98.40
52669;DHT22;59898;52.786;6.892;2022-08-01T12:55:01;24.50;98.10
52669;DHT22;59898;52.786;6.892;2022-08-01T12:58:22;24.70;98.50
52669;DHT22;59898;52.786;6.892;2022-08-01T13:01:43;24.70;98.40
52669;DHT22;59898;52.786;6.892;2022-08-01T13:05:04;24.70;98.20
52669;DHT22;59898;52.786;6.892;2022-08-01T13:11:50;24.50;97.80
52669;DHT22;59898;52.786;6.892;2022-08-01T13:15:27;24.40;98.10
52669;DHT22;59898;52.786;6.892;2022-08-01T13:18:50;24.40;98.20
52669;DHT22;59898;52.786;6.892;2022-08-01T13:22:11;24.50;98.00
52669;DHT22;59898;52.786;6.892;2022-08-01T13:25:31;24.70;97.80
52669;DHT22;59898;52.786;6.892;2022-08-01T13:29:05;24.70;97.50
52669;DHT22;59898;52.786;6.892;2022-08-01T13:32:26;24.90;97.60
52669;DHT22;59898;52.786;6.892;2022-08-01T13:35:50;25.00;97.00
52669;DHT22;59898;52.786;6.892;2022-08-01T13:39:10;25.20;97.10
52669;DHT22;59898;52.786;6.892;2022-08-01T13:42:50;25.40;96.80
52669;DHT22;59898;52.786;6.892;2022-08-01T13:46:10;25.60;96.50
52669;DHT22;59898;52.786;6.892;2022-08-01T13:49:31;25.80;96.20
52669;DHT22;59898;52.786;6.892;2022-08-01T13:52:52;25.90;95.90
52669;DHT22;59898;52.786;6.892;2022-08-01T13:56:13;26.00;95.70
52669;DHT22;59898;52.786;6.892;2022-08-01T13:59:33;26.10;95.30
52669;DHT22;59898;52.786;6.892;2022-08-01T14:02:54;26.20;95.00
52669;DHT22;59898;52.786;6.892;2022-08-01T14:06:15;26.30;94.90
52669;DHT22;59898;52.786;6.892;2022-08-01T14:09:38;26.30;94.70
52669;DHT22;59898;52.786;6.892;2022-08-01T14:12:58;26.20;94.70
52669;DHT22;59898;52.786;6.892;2022-08-01T14:16:19;26.30;94.60
52669;DHT22;59898;52.786;6.892;2022-08-01T14:19:40;26.30;94.50
52669;DHT22;59898;52.786;6.892;2022-08-01T14:23:01;26.20;94.00
52669;DHT22;59898;52.786;6.892;2022-08-01T14:26:21;26.20;94.10
52669;DHT22;59898;52.786;6.892;2022-08-01T14:29:42;26.20;93.80
52669;DHT22;59898;52.786;6.892;2022-08-01T14:33:03;26.20;93.60
52669;DHT22;59898;52.786;6.892;2022-08-01T14:36:24;26.30;93.60
52669;DHT22;59898;52.786;6.892;2022-08-01T14:39:45;26.20;93.50
52669;DHT22;59898;52.786;6.892;2022-08-01T14:43:06;26.20;93.30
52669;DHT22;59898;52.786;6.892;2022-08-01T14:46:27;26.00;93.20
52669;DHT22;59898;52.786;6.892;2022-08-01T14:49:48;25.90;93.60
52669;DHT22;59898;52.786;6.892;2022-08-01T14:53:09;25.80;93.40
52669;DHT22;59898;52.786;6.892;2022-08-01T14:56:30;26.00;93.50
52669;DHT22;59898;52.786;6.892;2022-08-01T14:59:50;26.10;92.90
52669;DHT22;59898;52.786;6.892;2022-08-01T15:03:11;26.10;92.50
52669;DHT22;59898;52.786;6.892;2022-08-01T15:06:32;26.20;92.10
52669;DHT22;59898;52.786;6.892;2022-08-01T15:09:53;26.10;91.80
52669;DHT22;59898;52.786;6.892;2022-08-01T15:13:14;26.00;91.90
52669;DHT22;59898;52.786;6.892;2022-08-01T15:16:35;26.00;92.00
52669;DHT22;59898;52.786;6.892;2022-08-01T15:19:56;26.00;92.00
52669;DHT22;59898;52.786;6.892;2022-08-01T15:23:17;25.90;91.90
52669;DHT22;59898;52.786;6.892;2022-08-01T15:26:38;25.70;91.90
52669;DHT22;59898;52.786;6.892;2022-08-01T15:29:58;25.60;91.60
52669;DHT22;59898;52.786;6.892;2022-08-01T15:33:19;25.70;91.60
52669;DHT22;59898;52.786;6.892;2022-08-01T15:36:41;25.80;91.50
52669;DHT22;59898;52.786;6.892;2022-08-01T15:40:05;25.80;91.70
52669;DHT22;59898;52.786;6.892;2022-08-01T15:43:26;25.60;91.70
52669;DHT22;59898;52.786;6.892;2022-08-01T15:46:48;25.50;91.80
52669;DHT22;59898;52.786;6.892;2022-08-01T15:50:09;25.40;91.90
52669;DHT22;59898;52.786;6.892;2022-08-01T15:53:30;25.30;92.10
52669;DHT22;59898;52.786;6.892;2022-08-01T15:56:51;25.30;92.10
52669;DHT22;59898;52.786;6.892;2022-08-01T16:00:11;25.40;92.00
52669;DHT22;59898;52.786;6.892;2022-08-01T16:03:34;25.40;91.80
52669;DHT22;59898;52.786;6.892;2022-08-01T16:06:54;25.30;91.70
52669;DHT22;59898;52.786;6.892;2022-08-01T16:10:15;25.30;91.60
52669;DHT22;59898;52.786;6.892;2022-08-01T16:13:36;25.20;91.60
52669;DHT22;59898;52.786;6.892;2022-08-01T16:16:57;25.10;91.40
52669;DHT22;59898;52.786;6.892;2022-08-01T16:20:17;25.10;91.50
52669;DHT22;59898;52.786;6.892;2022-08-01T16:23:40;25.10;91.50
52669;DHT22;59898;52.786;6.892;2022-08-01T16:27:00;25.10;91.40
52669;DHT22;59898;52.786;6.892;2022-08-01T16:30:21;25.10;91.20
52669;DHT22;59898;52.786;6.892;2022-08-01T16:33:42;25.00;91.20
52669;DHT22;59898;52.786;6.892;2022-08-01T16:37:03;25.10;91.30
52669;DHT22;59898;52.786;6.892;2022-08-01T16:40:24;25.00;91.20
52669;DHT22;59898;52.786;6.892;2022-08-01T16:43:45;25.00;91.50
52669;DHT22;59898;52.786;6.892;2022-08-01T16:47:05;24.90;91.30
52669;DHT22;59898;52.786;6.892;2022-08-01T16:50:26;24.90;91.30
52669;DHT22;59898;52.786;6.892;2022-08-01T16:53:47;24.90;91.40
52669;DHT22;59898;52.786;6.892;2022-08-01T16:57:08;24.90;91.30
52669;DHT22;59898;52.786;6.892;2022-08-01T17:00:29;24.80;90.90
52669;DHT22;59898;52.786;6.892;2022-08-01T17:03:50;24.60;91.10
52669;DHT22;59898;52.786;6.892;2022-08-01T17:07:10;24.60;91.00
52669;DHT22;59898;52.786;6.892;2022-08-01T17:10:31;24.50;91.00
52669;DHT22;59898;52.786;6.892;2022-08-01T17:13:52;24.50;91.20
52669;DHT22;59898;52.786;6.892;2022-08-01T17:17:13;24.30;91.20
52669;DHT22;59898;52.786;6.892;2022-08-01T17:20:33;24.20;91.20
52669;DHT22;59898;52.786;6.892;2022-08-01T17:23:54;24.20;91.20
52669;DHT22;59898;52.786;6.892;2022-08-01T17:27:15;24.10;91.20
52669;DHT22;59898;52.786;6.892;2022-08-01T17:30:36;24.00;91.30
52669;DHT22;59898;52.786;6.892;2022-08-01T17:33:59;24.00;91.30
52669;DHT22;59898;52.786;6.892;2022-08-01T17:37:20;24.00;91.40
52669;DHT22;59898;52.786;6.892;2022-08-01T17:40:41;24.00;91.50
52669;DHT22;59898;52.786;6.892;2022-08-01T17:44:01;24.00;91.50
52669;DHT22;59898;52.786;6.892;2022-08-01T17:47:23;24.00;91.40
52669;DHT22;59898;52.786;6.892;2022-08-01T17:50:45;24.00;91.30
52669;DHT22;59898;52.786;6.892;2022-08-01T17:54:06;24.00;91.40
52669;DHT22;59898;52.786;6.892;2022-08-01T17:57:27;23.90;91.60
52669;DHT22;59898;52.786;6.892;2022-08-01T18:00:48;23.80;91.70
52669;DHT22;59898;52.786;6.892;2022-08-01T18:04:08;23.70;91.80
52669;DHT22;59898;52.786;6.892;2022-08-01T18:07:30;23.60;91.80
52669;DHT22;59898;52.786;6.892;2022-08-01T18:10:51;23.50;92.00
52669;DHT22;59898;52.786;6.892;2022-08-01T18:14:13;23.40;92.10
52669;DHT22;59898;52.786;6.892;2022-08-01T18:17:33;23.20;92.30
52669;DHT22;59898;52.786;6.892;2022-08-01T18:20:54;23.20;92.40
52669;DHT22;59898;52.786;6.892;2022-08-01T18:24:16;23.20;92.50
52669;DHT22;59898;52.786;6.892;2022-08-01T18:27:36;23.00;92.60
52669;DHT22;59898;52.786;6.892;2022-08-01T18:30:57;22.90;93.00
52669;DHT22;59898;52.786;6.892;2022-08-01T18:34:18;22.60;93.30
52669;DHT22;59898;52.786;6.892;2022-08-01T18:37:39;22.60;93.40
52669;DHT22;59898;52.786;6.892;2022-08-01T18:41:00;22.50;93.50
52669;DHT22;59898;52.786;6.892;2022-08-01T18:44:20;22.40;93.60
52669;DHT22;59898;52.786;6.892;2022-08-01T18:47:43;22.30;93.80
52669;DHT22;59898;52.786;6.892;2022-08-01T18:51:05;22.00;94.00
52669;DHT22;59898;52.786;6.892;2022-08-01T18:54:27;21.70;94.50
52669;DHT22;59898;52.786;6.892;2022-08-01T18:57:47;21.50;94.70
52669;DHT22;59898;52.786;6.892;2022-08-01T19:01:08;21.30;94.80
52669;DHT22;59898;52.786;6.892;2022-08-01T19:04:29;21.20;95.00
52669;DHT22;59898;52.786;6.892;2022-08-01T19:07:49;21.00;95.20
52669;DHT22;59898;52.786;6.892;2022-08-01T19:11:10;20.90;95.50
52669;DHT22;59898;52.786;6.892;2022-08-01T19:14:31;20.80;95.70
52669;DHT22;59898;52.786;6.892;2022-08-01T19:17:52;20.70;95.90
52669;DHT22;59898;52.786;6.892;2022-08-01T19:21:12;20.70;96.00
52669;DHT22;59898;52.786;6.892;2022-08-01T19:24:33;20.60;96.10
52669;DHT22;59898;52.786;6.892;2022-08-01T19:27:55;20.50;96.20
52669;DHT22;59898;52.786;6.892;2022-08-01T19:31:22;20.40;96.50
52669;DHT22;59898;52.786;6.892;2022-08-01T19:34:49;20.20;96.90
52669;DHT22;59898;52.786;6.892;2022-08-01T19:38:14;19.90;97.10
52669;DHT22;59898;52.786;6.892;2022-08-01T19:41:35;19.90;97.20
52669;DHT22;59898;52.786;6.892;2022-08-01T19:44:57;19.80;97.40
52669;DHT22;59898;52.786;6.892;2022-08-01T19:48:19;19.50;97.90
52669;DHT22;59898;52.786;6.892;2022-08-01T19:52:00;19.30;98.20
52669;DHT22;59898;52.786;6.892;2022-08-01T19:55:26;19.00;98.60
52669;DHT22;59898;52.786;6.892;2022-08-01T19:58:50;18.70;99.00
52669;DHT22;59898;52.786;6.892;2022-08-01T20:02:19;18.60;99.20
52669;DHT22;59898;52.786;6.892;2022-08-01T20:05:40;18.60;99.30
52669;DHT22;59898;52.786;6.892;2022-08-01T20:09:01;18.60;99.30
52669;DHT22;59898;52.786;6.892;2022-08-01T20:12:22;18.40;99.60
52669;DHT22;59898;52.786;6.892;2022-08-01T20:15:43;18.20;99.90
52669;DHT22;59898;52.786;6.892;2022-08-01T20:19:04;18.00;99.90
52669;DHT22;59898;52.786;6.892;2022-08-01T20:22:26;17.90;99.90
52669;DHT22;59898;52.786;6.892;2022-08-01T20:25:51;17.90;99.90
52669;DHT22;59898;52.786;6.892;2022-08-01T20:29:16;17.80;99.90
52669;DHT22;59898;52.786;6.892;2022-08-01T20:32:37;17.60;99.90
52669;DHT22;59898;52.786;6.892;2022-08-01T20:36:00;17.50;99.90
52669;DHT22;59898;52.786;6.892;2022-08-01T20:39:23;17.40;99.90
52669;DHT22;59898;52.786;6.892;2022-08-01T20:42:44;17.40;99.90
52669;DHT22;59898;52.786;6.892;2022-08-01T20:46:07;17.30;99.90
52669;DHT22;59898;52.786;6.892;2022-08-01T20:49:29;17.40;99.90
52669;DHT22;59898;52.786;6.892;2022-08-01T20:52:51;17.50;99.90
52669;DHT22;59898;52.786;6.892;2022-08-01T20:56:20;17.60;99.90
52669;DHT22;59898;52.786;6.892;2022-08-01T21:00:03;17.70;99.90
52669;DHT22;59898;52.786;6.892;2022-08-01T21:03:29;17.80;99.90
52669;DHT22;59898;52.786;6.892;2022-08-01T21:07:00;17.70;99.90
52669;DHT22;59898;52.786;6.892;2022-08-01T21:10:22;17.70;99.90
52669;DHT22;59898;52.786;6.892;2022-08-01T21:13:47;17.50;99.90
52669;DHT22;59898;52.786;6.892;2022-08-01T21:17:16;17.40;99.90
52669;DHT22;59898;52.786;6.892;2022-08-01T21:20:58;17.30;99.90
52669;DHT22;59898;52.786;6.892;2022-08-01T21:24:22;17.10;99.90
52669;DHT22;59898;52.786;6.892;2022-08-01T21:27:48;17.10;99.90
52669;DHT22;59898;52.786;6.892;2022-08-01T21:31:10;16.90;99.90
52669;DHT22;59898;52.786;6.892;2022-08-01T21:34:32;16.80;99.90
52669;DHT22;59898;52.786;6.892;2022-08-01T21:37:57;16.80;99.90
52669;DHT22;59898;52.786;6.892;2022-08-01T21:41:19;16.70;99.90
52669;DHT22;59898;52.786;6.892;2022-08-01T21:44:45;16.60;99.90
52669;DHT22;59898;52.786;6.892;2022-08-01T21:48:06;16.60;99.90
52669;DHT22;59898;52.786;6.892;2022-08-01T21:55:04;16.90;99.90